Rapid City, SD

12:36 AM MDT on September 19, 2014 (GMT -0600)
Rapid City | Change Station
CLOSE
Current Station
Airport
Location: Rapid City,
Elevation: 3166 ft
Nearby Weather Stations

Elev 3166 ft 44.05 °N, 103.06 °W | Updated 24 minutes ago

Partly Cloudy
Partly Cloudy
72 °F
Feels Like 72 °F
N
23
Wind Variable Wind from North
Gusts 33 mph

Today
High -- | Low -- °F
--% Chance of Precip.
Yesterday
High -- | Low -- °F
Precip. -- in
6:36 AM 6:55 PM
Waning Crescent, 21% visible
Pressure 29.76 in
Visibility 10.0 miles
Clouds Clear
Dew Point 57 °F
Humidity 59%
Rainfall 0.00 in
Snow Depth Not available.
UV 0 out of 12
Pollen 6.20 out of 12
Air Quality Not available.
Flu Activity Not available.
SPECI KRAP 190612Z AUTO 35020G29KT 10SM CLR 22/14 A2976 RMK AO2 PK WND 35033/0601 WSHFT 0552 T02220139

More Conditions Fewer Conditions

Pressure 29.76 in
Visibility 10.0 miles
Clouds Clear
Dew Point 57 °F
Humidity 59%
Rainfall 0.00 in
Snow Depth Not available.
UV 0 out of 12
Pollen 6.20 out of 12
Air Quality Not available.
Flu Activity Not available.
SPECI KRAP 190612Z AUTO 35020G29KT 10SM CLR 22/14 A2976 RMK AO2 PK WND 35033/0601 WSHFT 0552 T02220139

More Conditions Fewer Conditions

10-Day Weather Forecast

Almanac

Astronomy

Sep. 19, 2014 Rise Set
Actual Time 6:36 AM MDT 6:55 PM MDT
Civil Twilight 6:07 AM MDT 7:24 PM MDT
Nautical Twilight 5:33 AM MDT 7:58 PM MDT
Astronomical Twilight 4:58 AM MDT 8:33 PM MDT
Moon 2:16 AM MDT 4:31 PM MDT
Length of Visible Light 13h 16m
Length of Day
12h 19m
Tomorrow will be 3m 1s shorter.
Waning Crescent, 21% of the Moon is Illuminated
Today
Waning Crescent
Sep 24
New
Oct 1
First Quarter
Oct 8
Full
Oct 15
Last Quarter

Today's Extremes

State Highs State Lows

Community

WunderPhotos

Upload Photos

1,754,575 photos uploaded!

Nearby

Snow Depth

Station Depth Elevation
Blind Park 0 in 6890 ft

Earthquake Activity

City Distance Mag. Time & Date
No recent earthquake activity has been reported nearby.
Minimum magnitude displayed is 2.5.

Coastal Water Temperatures

Place Temperature
No Stations Reporting

Nearby Weather Stations